Time;durP1;ratioP1;P1;durP2;ratioP2;P2;SDS_P1;SDS_P2;PMS_P1;PMS_P2;Temp;Humidity;BMP_temperature;BMP_pressure;BME280_temperature;BME280_humidity;BME280_pressure;Samples;Min_cycle;Max_cycle;Signal;HPM_P1;HPM_P2
2023/10/07 00:00:47;;;;;;;6.60;3.10;;;;;;;3.53;100.00;101693.52;106003;1253;65161;-48
2023/10/07 00:03:16;;;;;;;17.70;3.10;;;;;;;3.50;100.00;101686.77;105971;1251;72719;-49
2023/10/07 00:05:46;;;;;;;13.00;2.90;;;;;;;3.51;100.00;101673.48;106000;1256;60431;-49
2023/10/07 00:08:16;;;;;;;7.40;3.30;;;;;;;3.54;100.00;101665.91;105999;1251;60417;-48
2023/10/07 00:10:46;;;;;;;13.00;3.10;;;;;;;3.58;100.00;101659.54;105939;1251;72829;-49
2023/10/07 00:13:14;;;;;;;13.60;3.30;;;;;;;3.64;100.00;101647.75;105824;1258;64658;-49
2023/10/07 00:15:46;;;;;;;8.40;3.10;;;;;;;3.69;100.00;101642.28;105954;1251;72543;-48
2023/10/07 00:18:14;;;;;;;18.10;3.30;;;;;;;3.73;100.00;101633.69;105954;1251;62949;-49
2023/10/07 00:20:53;;;;;;;11.50;2.90;;;;;;;3.78;100.00;101625.25;106040;1251;60533;-49
2023/10/07 00:23:21;;;;;;;11.40;3.40;;;;;;;3.84;100.00;101615.54;105987;1254;73814;-49
2023/10/07 00:25:52;;;;;;;11.90;4.00;;;;;;;3.94;100.00;101603.86;106011;1251;64823;-49
2023/10/07 00:28:35;;;;;;;11.50;3.40;;;;;;;4.08;100.00;101598.25;105965;1251;72784;-50
2023/10/07 00:31:13;;;;;;;15.60;4.00;;;;;;;4.20;100.00;101595.66;105965;1256;61645;-50
2023/10/07 00:39:02;;;;;;;4.60;3.00;;;;;;;4.37;100.00;101589.76;105786;1251;64721;-51
2023/10/07 00:41:36;;;;;;;8.60;3.00;;;;;;;4.41;100.00;101587.30;105774;1252;72588;-50
2023/10/07 00:44:23;;;;;;;12.40;3.30;;;;;;;4.45;100.00;101587.23;105956;1257;61765;-48
2023/10/07 00:49:40;;;;;;;16.50;3.20;;;;;;;4.51;100.00;101595.94;105983;1251;73926;-49
2023/10/07 00:52:12;;;;;;;18.00;3.10;;;;;;;4.55;100.00;101598.59;106002;1254;64381;-50
2023/10/07 00:54:50;;;;;;;6.50;3.00;;;;;;;4.56;100.00;101602.20;106004;1251;72478;-51
2023/10/07 00:57:24;;;;;;;15.00;2.70;;;;;;;4.56;100.00;101605.81;105920;1256;61916;-50
2023/10/07 00:59:53;;;;;;;13.90;3.40;;;;;;;4.57;100.00;101615.73;105989;1251;61044;-48
2023/10/07 01:02:38;;;;;;;14.10;3.20;;;;;;;4.58;100.00;101622.09;105955;1252;73783;-49
2023/10/07 01:05:09;;;;;;;6.30;2.80;;;;;;;4.56;100.00;101629.73;105992;1255;64906;-49
2023/10/07 01:07:36;;;;;;;10.40;2.60;;;;;;;4.56;100.00;101633.99;105940;1251;72439;-49
2023/10/07 01:12:44;;;;;;;8.30;3.20;;;;;;;4.47;100.00;101647.63;105949;1251;60446;-49
2023/10/07 01:17:45;;;;;;;10.70;3.70;;;;;;;4.44;100.00;101652.00;105998;1255;64647;-49
2023/10/07 01:20:13;;;;;;;13.30;3.20;;;;;;;4.45;100.00;101646.38;105987;1251;72610;-48
2023/10/07 01:23:02;;;;;;;15.90;3.00;;;;;;;4.46;100.00;101645.21;105957;1251;61929;-49
2023/10/07 01:25:31;;;;;;;11.20;3.30;;;;;;;4.45;100.00;101646.23;105982;1251;60403;-48
2023/10/07 01:28:01;;;;;;;8.60;3.00;;;;;;;4.45;100.00;101641.25;105956;1251;73815;-48
2023/10/07 01:30:34;;;;;;;19.30;3.10;;;;;;;4.45;100.00;101634.23;105942;1256;64676;-49
2023/10/07 01:33:47;;;;;;;14.10;3.70;;;;;;;4.45;100.00;101636.98;105853;1251;72638;-49
2023/10/07 01:38:40;;;;;;;14.50;3.60;;;;;;;4.46;100.00;101641.80;105930;1251;60447;-49
2023/10/07 01:41:14;;;;;;;14.60;3.40;;;;;;;4.50;100.00;101646.34;105916;1257;73836;-48
2023/10/07 01:43:41;;;;;;;9.40;3.00;;;;;;;4.50;100.00;101651.98;105881;1257;64686;-49
2023/10/07 01:46:10;;;;;;;14.00;3.20;;;;;;;4.49;100.00;101651.44;106056;1257;71131;-50
2023/10/07 01:48:37;;;;;;;11.50;2.80;;;;;;;4.46;100.00;101648.46;106006;1256;60591;-50
2023/10/07 01:51:07;;;;;;;12.00;3.30;;;;;;;4.43;100.00;101657.80;105989;1251;60469;-49
2023/10/07 01:53:34;;;;;;;10.80;2.80;;;;;;;4.41;100.00;101658.75;105963;1255;72754;-50
2023/10/07 01:56:04;;;;;;;11.30;3.00;;;;;;;4.40;100.00;101656.48;105966;1255;65051;-49
2023/10/07 01:58:32;;;;;;;9.50;3.50;;;;;;;4.39;100.00;101653.39;105876;1251;72588;-48
2023/10/07 02:00:59;;;;;;;11.00;3.30;;;;;;;4.38;100.00;101649.62;105801;1258;60817;-48
2023/10/07 02:03:26;;;;;;;11.60;3.20;;;;;;;4.39;100.00;101645.02;105962;1251;60540;-48
2023/10/07 02:05:54;;;;;;;14.80;3.00;;;;;;;4.39;100.00;101644.52;105960;1256;73871;-49
2023/10/07 02:08:22;;;;;;;11.20;3.40;;;;;;;4.40;100.00;101639.39;105984;1256;64569;-48
2023/10/07 02:10:56;;;;;;;8.00;2.90;;;;;;;4.39;100.00;101632.69;105967;1252;72511;-48
2023/10/07 02:13:24;;;;;;;15.00;2.80;;;;;;;4.35;100.00;101624.41;105944;1256;60375;-50
2023/10/07 02:15:52;;;;;;;14.10;3.30;;;;;;;4.32;100.00;101618.88;105973;1254;60511;-49
2023/10/07 02:18:19;;;;;;;12.10;3.50;;;;;;;4.28;100.00;101614.33;105901;1255;73773;-49
2023/10/07 02:21:23;;;;;;;13.70;3.50;;;;;;;4.26;100.00;101607.60;105867;1251;65384;-49
2023/10/07 02:23:44;;;;;;;9.40;2.80;;;;;;;4.25;100.00;101604.19;105929;1256;72801;-48
2023/10/07 02:26:19;;;;;;;9.10;2.90;;;;;;;4.30;100.00;101605.67;105933;1256;62111;-49
2023/10/07 02:28:51;;;;;;;10.20;3.60;;;;;;;4.40;100.00;101608.10;105986;1251;60380;-48
2023/10/07 02:31:19;;;;;;;9.00;3.10;;;;;;;4.44;100.00;101600.89;105846;1256;73780;-48
2023/10/07 02:33:52;;;;;;;11.60;3.20;;;;;;;4.42;100.00;101595.50;105960;1255;64737;-49
2023/10/07 02:36:36;;;;;;;10.00;3.60;;;;;;;4.39;100.00;101586.73;105962;1256;72697;-48
2023/10/07 02:39:24;;;;;;;11.40;3.50;;;;;;;4.37;100.00;101576.95;105919;1251;61976;-50
2023/10/07 02:41:51;;;;;;;7.90;2.80;;;;;;;4.37;100.00;101563.95;105882;1251;60418;-49
2023/10/07 02:44:26;;;;;;;15.60;3.60;;;;;;;4.35;100.00;101560.30;105966;1256;72865;-49
2023/10/07 02:46:53;;;;;;;20.40;3.30;;;;;;;4.29;100.00;101546.00;105952;1256;64659;-50
2023/10/07 02:49:21;;;;;;;11.10;3.60;;;;;;;4.27;100.00;101541.13;106018;1256;71529;-50
2023/10/07 02:51:57;;;;;;;22.70;3.80;;;;;;;4.24;100.00;101531.51;105976;1253;61132;-50
2023/10/07 02:54:32;;;;;;;;;;;;;;;4.21;100.00;101523.41;106000;1251;60562;-49
2023/10/07 02:59:31;;;;;;;10.80;3.20;;;;;;;4.15;100.00;101513.86;106078;1251;64615;-49
2023/10/07 03:02:25;;;;;;;12.00;3.30;;;;;;;4.20;100.00;101515.52;105935;1251;72538;-49
2023/10/07 03:04:58;;;;;;;12.50;3.20;;;;;;;4.26;100.00;101515.67;105918;1256;60479;-49
2023/10/07 03:07:25;;;;;;;9.00;3.20;;;;;;;4.32;100.00;101515.46;105961;1251;60603;-49
2023/10/07 03:12:39;;;;;;;15.20;3.90;;;;;;;4.33;100.00;101501.46;105791;1257;64702;-49
2023/10/07 03:15:20;;;;;;;15.00;3.80;;;;;;;4.33;100.00;101500.29;105948;1251;72696;-48
2023/10/07 03:17:49;;;;;;;13.50;3.60;;;;;;;4.34;100.00;101495.51;105976;1256;60421;-53
2023/10/07 03:28:35;;;;;;;18.70;3.60;;;;;;;4.27;100.00;101485.27;105693;1251;72378;-50
2023/10/07 03:31:10;;;;;;;15.70;3.20;;;;;;;4.24;100.00;101481.95;105991;1251;60530;-50
2023/10/07 03:41:52;;;;;;;15.60;3.40;;;;;;;4.25;100.00;101464.20;105891;1252;72528;-48
2023/10/07 03:44:20;;;;;;;11.70;3.60;;;;;;;4.27;100.00;101453.31;105973;1255;60892;-49
2023/10/07 03:46:48;;;;;;;9.00;3.40;;;;;;;4.27;100.00;101444.10;105970;1251;60536;-48
2023/10/07 03:49:16;;;;;;;13.60;3.60;;;;;;;4.27;100.00;101437.08;106027;1251;73650;-48
2023/10/07 03:51:45;;;;;;;10.30;3.10;;;;;;;4.30;100.00;101433.73;106001;1257;64722;-49
2023/10/07 03:54:15;;;;;;;15.10;3.00;;;;;;;4.33;100.00;101430.38;105974;1251;72609;-48
2023/10/07 03:56:42;;;;;;;6.50;2.70;;;;;;;4.35;100.00;101427.17;106001;1256;61861;-49
2023/10/07 03:59:09;;;;;;;10.20;3.30;;;;;;;4.37;100.00;101422.09;105991;1251;61690;-49
2023/10/07 04:01:42;;;;;;;11.90;3.20;;;;;;;4.41;100.00;101424.05;105979;1256;73504;-49
2023/10/07 04:04:11;;;;;;;13.60;3.20;;;;;;;4.46;100.00;101423.16;105945;1256;64645;-48
2023/10/07 04:06:40;;;;;;;10.40;3.60;;;;;;;4.51;100.00;101421.89;105953;1252;72832;-48
2023/10/07 04:09:07;;;;;;;14.30;3.60;;;;;;;4.54;100.00;101418.20;106004;1256;60998;-48
2023/10/07 04:11:39;;;;;;;20.00;3.60;;;;;;;4.56;100.00;101409.35;105993;1251;60437;-48
2023/10/07 04:14:18;;;;;;;10.60;4.40;;;;;;;4.56;100.00;101390.36;105967;1251;72444;-48
2023/10/07 04:16:49;;;;;;;10.60;3.90;;;;;;;4.54;100.00;101378.02;106037;1257;64731;-48
2023/10/07 04:19:30;;;;;;;9.30;3.50;;;;;;;4.53;100.00;101360.71;105952;1251;71552;-48
2023/10/07 04:21:58;;;;;;;9.70;3.30;;;;;;;4.53;100.00;101350.45;105967;1256;61118;-50
2023/10/07 04:24:28;;;;;;;14.40;4.10;;;;;;;4.54;100.00;101337.33;105943;1251;60443;-49
2023/10/07 04:27:01;;;;;;;20.30;4.20;;;;;;;4.57;100.00;101316.20;106006;1256;73862;-49
2023/10/07 04:29:30;;;;;;;11.40;4.00;;;;;;;4.57;100.00;101292.43;105957;1257;64797;-49
2023/10/07 04:31:59;;;;;;;9.00;3.70;;;;;;;4.58;100.00;101263.38;106000;1251;71422;-50
2023/10/07 04:34:26;;;;;;;11.20;3.90;;;;;;;4.59;100.00;101239.65;105958;1256;60593;-50
2023/10/07 04:39:28;;;;;;;15.30;4.20;;;;;;;4.66;100.00;101197.86;105932;1252;73658;-49
2023/10/07 04:41:59;;;;;;;17.70;4.00;;;;;;;4.71;100.00;101178.98;105927;1251;64479;-49
2023/10/07 04:47:35;;;;;;;11.30;3.90;;;;;;;4.87;100.00;101131.86;105915;1256;60550;-50
2023/10/07 04:52:33;;;;;;;13.40;3.70;;;;;;;5.06;100.00;101109.91;106008;1251;73689;-50
2023/10/07 04:55:01;;;;;;;9.00;3.40;;;;;;;5.19;100.00;101091.79;106028;1253;63777;-50
2023/10/07 04:57:44;;;;;;;23.00;3.80;;;;;;;5.34;100.00;101067.17;105996;1252;72633;-49
2023/10/07 05:03:03;;;;;;;26.20;3.90;;;;;;;5.65;100.00;100985.02;106010;1251;60447;-51
2023/10/07 05:05:33;;;;;;;11.10;3.90;;;;;;;5.77;100.00;100950.89;105958;1252;73778;-49
2023/10/07 05:08:19;;;;;;;11.00;3.60;;;;;;;5.89;100.00;100913.13;105966;1255;64639;-50
2023/10/07 05:10:52;;;;;;;12.00;3.90;;;;;;;6.02;100.00;100880.54;105963;1251;71555;-50
2023/10/07 05:13:20;;;;;;;11.10;3.70;;;;;;;6.14;100.00;100847.02;105903;1259;60400;-50
2023/10/07 05:15:47;;;;;;;10.70;3.50;;;;;;;6.27;100.00;100803.06;106006;1251;60325;-50
2023/10/07 05:18:16;;;;;;;7.00;3.40;;;;;;;6.40;100.00;100758.89;106008;1256;73694;-50
2023/10/07 05:20:46;;;;;;;6.90;3.40;;;;;;;6.54;100.00;100718.30;106006;1251;64670;-47
2023/10/07 05:23:17;;;;;;;13.90;4.00;;;;;;;6.68;100.00;100671.49;106002;1251;72632;-47
2023/10/07 05:25:51;;;;;;;13.00;3.20;;;;;;;6.78;100.00;100643.03;105983;1251;60453;-50
2023/10/07 05:28:22;;;;;;;10.10;4.10;;;;;;;6.90;100.00;100618.16;106046;1251;60547;-49
2023/10/07 05:30:50;;;;;;;15.30;4.50;;;;;;;7.04;100.00;100604.76;105990;1256;73820;-50
2023/10/07 05:33:27;;;;;;;10.00;4.20;;;;;;;7.17;100.00;100594.77;105983;1251;64544;-50
2023/10/07 05:36:11;;;;;;;12.70;3.50;;;;;;;7.35;100.00;100579.97;105954;1256;72314;-50
2023/10/07 05:38:38;;;;;;;9.80;3.40;;;;;;;7.55;100.00;100556.72;105882;1251;60492;-49
2023/10/07 05:41:06;;;;;;;6.60;3.30;;;;;;;7.74;100.00;100534.98;105683;1251;417864;-49
2023/10/07 05:46:29;;;;;;;9.90;3.10;;;;;;;8.18;100.00;100505.83;103002;1285;599882;-48
2023/10/07 05:48:58;;;;;;;11.60;3.50;;;;;;;8.36;100.00;100520.81;105430;1262;60324;-51
2023/10/07 05:51:25;;;;;;;12.70;3.50;;;;;;;8.51;100.00;100542.38;105518;1259;60042;-48
2023/10/07 05:53:52;;;;;;;15.60;3.40;;;;;;;8.67;100.00;100567.03;105460;1260;72283;-48
2023/10/07 05:56:19;;;;;;;10.30;3.20;;;;;;;8.81;100.00;100599.77;105489;1262;64590;-47
2023/10/07 05:58:48;;;;;;;9.70;3.60;;;;;;;8.96;100.00;100632.70;105300;1262;237938;-47
2023/10/07 06:01:18;;;;;;;5.50;2.90;;;;;;;9.09;100.00;100658.57;105621;1262;60257;-48
2023/10/07 06:03:46;;;;;;;11.00;3.60;;;;;;;9.24;100.00;100687.71;105620;1260;60174;-48
2023/10/07 06:06:14;;;;;;;7.90;3.60;;;;;;;9.35;100.00;100709.83;105581;1257;72093;-48
2023/10/07 06:08:41;;;;;;;11.30;3.80;;;;;;;9.47;100.00;100723.48;105578;1260;64693;-49
2023/10/07 06:11:11;;;;;;;17.80;3.80;;;;;;;9.61;100.00;100752.48;105646;1256;72539;-51
2023/10/07 06:13:40;;;;;;;18.00;4.00;;;;;;;9.73;100.00;100760.80;105540;1261;60087;-49
2023/10/07 06:16:08;;;;;;;13.00;3.70;;;;;;;9.83;100.00;100761.91;105439;1262;59638;-50
2023/10/07 06:18:36;;;;;;;16.90;3.60;;;;;;;9.91;100.00;100765.96;105630;1256;73017;-50
2023/10/07 06:21:27;;;;;;;8.60;4.00;;;;;;;10.00;100.00;100770.02;105613;1257;64579;-48
2023/10/07 06:24:04;;;;;;;15.40;3.90;;;;;;;10.10;100.00;100774.04;105587;1256;71554;-48
2023/10/07 06:26:31;;;;;;;16.60;4.50;;;;;;;10.19;100.00;100790.99;105593;1262;60380;-49
2023/10/07 06:29:05;;;;;;;11.70;4.40;;;;;;;10.27;100.00;100793.16;105595;1256;60290;-49
2023/10/07 06:31:33;;;;;;;14.40;4.20;;;;;;;10.35;100.00;100803.77;105642;1256;73102;-48
2023/10/07 06:34:00;;;;;;;22.30;4.70;;;;;;;10.42;100.00;100808.70;105708;1260;64540;-49
2023/10/07 06:36:30;;;;;;;15.30;4.80;;;;;;;10.49;100.00;100815.35;105904;1254;72664;-49
2023/10/07 06:39:01;;;;;;;9.10;4.10;;;;;;;10.56;100.00;100818.38;105946;1253;60350;-49
2023/10/07 06:41:29;;;;;;;10.10;5.00;;;;;;;10.61;100.00;100818.14;105917;1254;60347;-49
2023/10/07 06:44:00;;;;;;;10.20;4.50;;;;;;;10.69;100.00;100815.62;105871;1256;72734;-50
2023/10/07 06:46:29;;;;;;;16.70;4.70;;;;;;;10.79;100.00;100814.98;105939;1256;64660;-49
2023/10/07 06:48:56;;;;;;;27.20;4.50;;;;;;;10.89;100.00;100820.17;105868;1252;72566;-51
2023/10/07 06:51:28;;;;;;;14.30;4.20;;;;;;;11.03;100.00;100821.73;105860;1256;60351;-50
2023/10/07 06:53:58;;;;;;;18.90;4.20;;;;;;;11.15;100.00;100814.46;105838;1253;60169;-49
2023/10/07 06:56:26;;;;;;;15.30;3.50;;;;;;;11.27;100.00;100816.71;105871;1256;72028;-49
2023/10/07 06:58:53;;;;;;;10.30;3.20;;;;;;;11.39;96.14;100799.05;105905;1256;64589;-48
2023/10/07 07:01:35;;;;;;;12.70;3.60;;;;;;;11.52;85.88;100796.09;105876;1253;72704;-50
2023/10/07 07:04:11;;;;;;;15.50;3.70;;;;;;;11.66;83.50;100801.91;105840;1256;60397;-48
2023/10/07 07:06:44;;;;;;;11.10;3.10;;;;;;;11.82;82.81;100804.02;105877;1253;59644;-50
2023/10/07 07:12:18;;;;;;;;;;;;;;;12.21;73.97;100756.11;105539;1263;64578;-50
2023/10/07 07:14:52;;;;;;;10.90;2.60;;;;;;;12.32;71.88;100745.66;105570;1260;72772;-52
2023/10/07 07:17:29;;;;;;;20.30;3.20;;;;;;;12.40;70.46;100742.39;105675;1258;60151;-51
2023/10/07 07:22:44;;;;;;;8.10;3.30;;;;;;;12.51;66.64;100689.89;105878;1253;73094;-49
2023/10/07 07:27:58;;;;;;;34.70;4.30;;;;;;;12.54;66.95;100731.89;105656;1253;71677;-50
2023/10/07 07:30:31;;;;;;;7.10;2.70;;;;;;;12.57;66.24;100714.16;105836;1256;60318;-51
2023/10/07 07:33:15;;;;;;;10.60;3.40;;;;;;;12.59;64.56;100639.85;105907;1256;59549;-50
2023/10/07 07:35:43;;;;;;;18.50;2.90;;;;;;;12.54;64.48;100679.79;105905;1254;72987;-51
2023/10/07 07:38:30;;;;;;;62.90;4.50;;;;;;;12.56;64.17;100677.49;105903;1256;64674;-51
2023/10/07 07:41:08;;;;;;;9.80;3.10;;;;;;;12.65;63.82;100645.23;105911;1253;72699;-51
2023/10/07 07:43:37;;;;;;;19.80;2.80;;;;;;;12.81;63.66;100645.37;105874;1256;60062;-49
2023/10/07 07:46:18;;;;;;;12.90;2.40;;;;;;;13.02;63.36;100626.48;105949;1254;60766;-49
2023/10/07 07:48:47;;;;;;;11.40;2.70;;;;;;;13.27;62.91;100598.29;105832;1255;72970;-50
2023/10/07 07:51:20;;;;;;;10.60;2.60;;;;;;;13.43;61.71;100533.03;105871;1256;64618;-49
2023/10/07 07:53:48;;;;;;;43.40;4.20;;;;;;;13.53;61.33;100521.16;105903;1253;72737;-49
2023/10/07 07:56:15;;;;;;;7.10;2.90;;;;;;;13.63;60.99;100511.50;105968;1256;60178;-50
2023/10/07 07:58:47;;;;;;;9.20;2.50;;;;;;;13.71;60.50;100488.88;105922;1253;60238;-50
2023/10/07 08:01:28;;;;;;;13.50;2.70;;;;;;;13.75;60.72;100511.80;105873;1256;73106;-51
2023/10/07 08:03:58;;;;;;;9.00;2.50;;;;;;;13.83;60.82;100550.42;105911;1256;64683;-50
2023/10/07 08:06:25;;;;;;;5.80;2.60;;;;;;;13.91;60.53;100522.23;105850;1253;72470;-51
2023/10/07 08:08:53;;;;;;;17.40;2.80;;;;;;;13.97;60.60;100535.41;105837;1256;61146;-51
2023/10/07 08:11:21;;;;;;;23.40;2.90;;;;;;;14.00;61.65;100633.53;105909;1253;60449;-50
2023/10/07 08:13:48;;;;;;;19.60;2.90;;;;;;;14.07;61.80;100643.05;105882;1253;72954;-49
2023/10/07 08:16:18;;;;;;;41.00;3.90;;;;;;;14.14;62.11;100657.05;105994;1256;64652;-50
2023/10/07 08:18:49;;;;;;;15.40;2.90;;;;;;;14.20;61.64;100594.58;105887;1253;73175;-52
2023/10/07 08:21:16;;;;;;;17.40;2.80;;;;;;;14.23;61.00;100546.74;105935;1256;60146;-48
2023/10/07 08:23:47;;;;;;;8.80;2.50;;;;;;;14.25;61.79;100614.40;105807;1253;60112;-48
2023/10/07 08:26:20;;;;;;;14.20;2.60;;;;;;;14.31;62.27;100627.56;105849;1254;72858;-48
2023/10/07 08:28:59;;;;;;;16.80;2.90;;;;;;;14.40;62.75;100652.13;105902;1256;64692;-50
2023/10/07 08:31:39;;;;;;;22.70;3.40;;;;;;;14.53;61.43;100548.39;105868;1256;72591;-51
2023/10/07 08:36:36;;;;;;;32.50;3.60;;;;;;;14.64;60.55;100490.20;105871;1253;60308;-50
2023/10/07 08:39:05;;;;;;;10.70;3.40;;;;;;;14.66;60.73;100503.00;105863;1256;73014;-51
2023/10/07 08:41:32;;;;;;;22.10;3.20;;;;;;;14.71;60.55;100506.30;105902;1254;64448;-49
2023/10/07 08:44:13;;;;;;;26.50;3.20;;;;;;;14.73;60.57;100503.62;105841;1253;72601;-48
2023/10/07 08:46:45;;;;;;;19.10;3.50;;;;;;;14.77;59.61;100439.59;105887;1256;60341;-49
2023/10/07 08:49:15;;;;;;;21.00;3.90;;;;;;;14.77;59.98;100475.52;105860;1254;60280;-51
2023/10/07 08:51:42;;;;;;;20.40;3.80;;;;;;;14.82;59.74;100467.73;105685;1259;73127;-48
2023/10/07 08:54:11;;;;;;;20.20;3.50;;;;;;;14.85;59.57;100448.67;105900;1256;64691;-50
2023/10/07 08:56:40;;;;;;;10.30;3.00;;;;;;;14.87;60.02;100491.70;105858;1256;72680;-48
2023/10/07 08:59:07;;;;;;;11.80;3.00;;;;;;;14.91;60.38;100518.98;105838;1256;60392;-52
2023/10/07 09:01:36;;;;;;;15.30;2.70;;;;;;;14.93;60.23;100514.23;105829;1254;60060;-51
2023/10/07 09:04:07;;;;;;;29.70;3.30;;;;;;;14.95;59.84;100476.81;105879;1256;73039;-50
2023/10/07 09:06:37;;;;;;;16.90;2.90;;;;;;;14.95;60.17;100496.45;105873;1256;64639;-50
2023/10/07 09:09:07;;;;;;;27.50;3.20;;;;;;;14.98;60.56;100531.25;105930;1256;72576;-50
2023/10/07 09:11:37;;;;;;;11.90;2.60;;;;;;;15.03;60.59;100527.77;105930;1256;60272;-48
2023/10/07 09:14:07;;;;;;;32.70;4.10;;;;;;;15.07;60.31;100491.81;105939;1253;60205;-50
2023/10/07 09:16:35;;;;;;;12.40;2.90;;;;;;;15.11;60.41;100492.91;105915;1256;73038;-50
2023/10/07 09:19:10;;;;;;;32.00;3.90;;;;;;;15.16;60.03;100453.64;105896;1256;64654;-50
2023/10/07 09:21:38;;;;;;;25.60;3.20;;;;;;;15.22;59.35;100399.86;105898;1253;73244;-49
2023/10/07 09:24:13;;;;;;;28.00;3.30;;;;;;;15.25;59.38;100405.83;105923;1256;60341;-49
2023/10/07 09:26:56;;;;;;;17.70;3.00;;;;;;;15.30;59.10;100396.58;105891;1253;60136;-51
2023/10/07 09:29:32;;;;;;;27.00;3.90;;;;;;;15.36;59.03;100386.27;105924;1253;72932;-49
2023/10/07 09:32:16;;;;;;;35.80;4.40;;;;;;;15.39;59.09;100399.05;105858;1255;64582;-49
2023/10/07 09:34:44;;;;;;;16.70;3.20;;;;;;;15.45;59.80;100455.65;105936;1253;73057;-49
2023/10/07 09:37:21;;;;;;;20.90;3.50;;;;;;;15.56;59.27;100416.81;105931;1255;59710;-49
2023/10/07 09:39:54;;;;;;;41.10;4.20;;;;;;;15.64;58.96;100368.48;105956;1254;60283;-51
2023/10/07 09:42:27;;;;;;;38.90;4.10;;;;;;;15.70;58.40;100312.56;105874;1255;72922;-50
2023/10/07 09:44:55;;;;;;;94.00;7.40;;;;;;;15.73;57.57;100235.71;105891;1256;64714;-49
2023/10/07 09:47:22;;;;;;;25.00;4.20;;;;;;;15.74;57.40;100217.57;105895;1256;72438;-50
2023/10/07 09:49:50;;;;;;;20.40;3.70;;;;;;;15.74;57.62;100263.16;105910;1256;60316;-48
2023/10/07 09:52:17;;;;;;;38.70;3.50;;;;;;;15.74;57.80;100273.08;105804;1253;60327;-49
2023/10/07 09:55:18;;;;;;;45.50;4.70;;;;;;;15.79;57.27;100220.34;105916;1256;73084;-49
2023/10/07 09:58:08;;;;;;;29.80;3.50;;;;;;;15.76;57.51;100259.95;105931;1256;65379;-51
2023/10/07 10:01:05;;;;;;;41.20;4.60;;;;;;;15.76;57.56;100269.66;105881;1255;72605;-49
2023/10/07 10:03:45;;;;;;;14.70;3.40;;;;;;;15.74;58.18;100316.04;105944;1256;60432;-50
2023/10/07 10:06:25;;;;;;;16.00;3.40;;;;;;;15.73;58.16;100306.38;105912;1256;60477;-52
2023/10/07 10:08:59;;;;;;;18.30;3.40;;;;;;;15.72;58.08;100299.43;105913;1253;73888;-50
2023/10/07 10:16:47;;;;;;;19.90;3.50;;;;;;;15.68;58.33;100312.30;105914;1255;61836;-51
2023/10/07 10:19:47;;;;;;;29.50;4.00;;;;;;;15.64;58.56;100351.43;105867;1254;60430;-50
2023/10/07 10:22:24;;;;;;;17.30;3.60;;;;;;;15.38;61.69;100595.35;105868;1254;73732;-51
2023/10/07 10:24:54;;;;;;;11.10;3.00;;;;;;;15.20;62.55;100605.38;105914;1256;64682;-50
2023/10/07 10:27:21;;;;;;;17.00;2.80;;;;;;;15.07;63.53;100571.44;105910;1257;72638;-50
2023/10/07 10:30:04;;;;;;;16.30;3.10;;;;;;;14.97;65.51;100541.89;105880;1256;60429;-51
2023/10/07 10:32:36;;;;;;;14.80;3.20;;;;;;;14.87;66.39;100480.40;105935;1253;60406;-52
2023/10/07 10:35:06;;;;;;;19.50;3.30;;;;;;;14.82;67.79;100466.35;105909;1256;72598;-50
2023/10/07 10:37:34;;;;;;;25.30;3.60;;;;;;;14.74;74.36;100459.49;105937;1255;63566;-51
2023/10/07 10:40:14;;;;;;;19.90;3.90;;;;;;;14.66;89.36;100436.13;105873;1256;72662;-50
2023/10/07 10:42:42;;;;;;;21.30;3.00;;;;;;;14.60;84.19;100403.84;105910;1256;60599;-50
2023/10/07 10:45:24;;;;;;;9.10;3.00;;;;;;;14.63;83.47;100415.20;105925;1256;60418;-52
2023/10/07 10:47:54;;;;;;;8.60;3.00;;;;;;;14.66;87.22;100412.86;105878;1253;73944;-52
2023/10/07 10:50:28;;;;;;;18.10;2.90;;;;;;;14.68;92.28;100406.88;105980;1256;64609;-51
2023/10/07 10:52:56;;;;;;;8.90;3.10;;;;;;;14.71;97.56;100393.42;105943;1256;72588;-50
2023/10/07 10:55:26;;;;;;;22.70;4.20;;;;;;;14.73;98.61;100384.85;105917;1256;60429;-51
2023/10/07 10:57:54;;;;;;;12.30;3.30;;;;;;;14.76;96.71;100377.27;105896;1256;60399;-51
2023/10/07 11:00:22;;;;;;;13.90;2.90;;;;;;;14.84;93.40;100368.29;105899;1256;73787;-51
2023/10/07 11:02:50;;;;;;;12.00;3.40;;;;;;;14.88;92.44;100363.60;105901;1256;64581;-52
2023/10/07 11:05:18;;;;;;;9.40;3.20;;;;;;;14.88;99.65;100362.55;105949;1254;71469;-52
2023/10/07 11:07:50;;;;;;;11.60;3.40;;;;;;;14.86;100.00;100348.08;105931;1255;60354;-49
2023/10/07 11:10:22;;;;;;;19.70;4.70;;;;;;;14.78;100.00;100331.16;105710;1252;60527;-53
2023/10/07 11:12:56;;;;;;;9.10;3.60;;;;;;;14.66;100.00;100304.83;105941;1255;73895;-53
2023/10/07 11:15:27;;;;;;;16.80;3.60;;;;;;;14.50;100.00;100280.25;105961;1256;64701;-52
2023/10/07 11:17:55;;;;;;;12.90;3.50;;;;;;;14.34;100.00;100242.15;105923;1254;72639;-50
2023/10/07 11:20:24;;;;;;;10.40;4.00;;;;;;;14.20;100.00;100191.27;105935;1255;61990;-51
2023/10/07 11:22:53;;;;;;;14.40;4.10;;;;;;;14.09;100.00;100129.92;105926;1256;60425;-53
2023/10/07 11:25:23;;;;;;;12.70;3.30;;;;;;;14.02;100.00;100097.21;105881;1251;73987;-51
2023/10/07 11:27:51;;;;;;;23.10;3.90;;;;;;;14.01;100.00;100087.89;106006;1256;64607;-52
2023/10/07 11:30:20;;;;;;;15.20;4.30;;;;;;;13.98;100.00;100064.05;105966;1254;72649;-51
2023/10/07 11:32:47;;;;;;;18.00;3.50;;;;;;;13.90;100.00;100032.79;105914;1256;62712;-52
2023/10/07 11:35:21;;;;;;;11.80;3.60;;;;;;;13.79;100.00;99986.40;105904;1253;60468;-49
2023/10/07 11:37:57;;;;;;;13.10;3.90;;;;;;;13.64;100.00;99946.57;105977;1256;73671;-53
2023/10/07 11:40:26;;;;;;;10.40;3.50;;;;;;;13.50;100.00;99894.79;105937;1256;63677;-50
2023/10/07 11:42:53;;;;;;;22.70;3.30;;;;;;;13.41;100.00;99885.58;105707;1256;72752;-51
2023/10/07 11:45:23;;;;;;;12.60;3.40;;;;;;;13.32;100.00;99863.02;105891;1254;61844;-52
2023/10/07 11:47:49;;;;;;;23.40;4.20;;;;;;;13.16;100.00;99862.58;105905;1256;60338;-49
2023/10/07 11:50:17;;;;;;;11.20;3.40;;;;;;;13.01;100.00;99901.26;105870;1255;73719;-52
2023/10/07 11:52:46;;;;;;;18.40;5.20;;;;;;;12.90;100.00;99957.77;105914;1258;64467;-51
2023/10/07 11:55:16;;;;;;;11.00;4.30;;;;;;;12.83;100.00;100020.02;105915;1254;72627;-51
2023/10/07 11:57:44;;;;;;;10.00;3.90;;;;;;;12.77;100.00;100063.17;105895;1256;62002;-52
2023/10/07 12:00:27;;;;;;;18.30;4.00;;;;;;;12.72;100.00;100114.77;105903;1253;60488;-49
2023/10/07 12:02:58;;;;;;;11.00;3.20;;;;;;;12.68;100.00;100146.23;105887;1257;74268;-52
2023/10/07 12:05:29;;;;;;;16.70;4.50;;;;;;;12.67;100.00;100156.48;105922;1256;64625;-51
2023/10/07 12:08:01;;;;;;;11.40;3.90;;;;;;;12.66;100.00;100160.13;105878;1256;72622;-49
2023/10/07 12:10:33;;;;;;;10.40;4.30;;;;;;;12.63;100.00;100184.95;105897;1257;61902;-51
2023/10/07 12:13:00;;;;;;;18.70;4.00;;;;;;;12.61;100.00;100211.34;105980;1253;60299;-51
2023/10/07 12:15:27;;;;;;;14.40;4.70;;;;;;;12.60;100.00;100245.48;105962;1255;72815;-49
2023/10/07 12:17:54;;;;;;;16.10;4.00;;;;;;;12.58;100.00;100287.27;105924;1256;64548;-50
2023/10/07 12:20:22;;;;;;;10.80;4.40;;;;;;;12.58;100.00;100334.01;105921;1256;72700;-49
2023/10/07 12:22:49;;;;;;;11.00;4.50;;;;;;;12.58;100.00;100364.27;105937;1253;61897;-51
2023/10/07 12:25:16;;;;;;;17.10;4.60;;;;;;;12.59;100.00;100388.67;105927;1257;60521;-50
2023/10/07 12:27:43;;;;;;;26.60;5.40;;;;;;;12.60;100.00;100396.77;105856;1257;73689;-52
2023/10/07 12:30:11;;;;;;;20.80;6.20;;;;;;;12.62;100.00;100407.09;105876;1257;64619;-50
2023/10/07 12:32:41;;;;;;;21.00;6.00;;;;;;;12.65;100.00;100409.27;105955;1255;72660;-50
2023/10/07 12:35:10;;;;;;;16.30;5.10;;;;;;;12.73;100.00;100372.52;105894;1255;61871;-50
2023/10/07 12:37:41;;;;;;;14.70;4.20;;;;;;;12.80;100.00;100333.87;105873;1254;60403;-51